createdAt,value
2022-10-24T00:02:22.484Z,96622.41
2022-10-24T00:04:49.047Z,96508.19
2022-10-24T00:07:15.666Z,96618.69
2022-10-24T00:09:42.303Z,96628.13
2022-10-24T00:12:08.874Z,96510.94
2022-10-24T00:14:35.755Z,96405.72
2022-10-24T00:17:02.368Z,96617.56
2022-10-24T00:19:28.993Z,96626.50
2022-10-24T00:21:55.797Z,96380.88
2022-10-24T00:24:22.571Z,96611.38
2022-10-24T00:26:49.122Z,96579.22
2022-10-24T00:29:15.687Z,96474.56
2022-10-24T00:31:42.329Z,96646.31
2022-10-24T00:34:08.953Z,96559.84
2022-10-24T00:36:35.606Z,96631.84
2022-10-24T00:39:02.236Z,96577.09
2022-10-24T00:41:31.299Z,96609.44
2022-10-24T00:44:17.489Z,96622.72
2022-10-24T00:46:46.708Z,96626.31
2022-10-24T00:49:15.204Z,96490.16
2022-10-24T00:51:41.799Z,96510.78
2022-10-24T00:54:10.010Z,96582.63
2022-10-24T00:56:39.941Z,96535.47
2022-10-24T00:59:07.853Z,96635.28
2022-10-24T01:01:34.559Z,96589.28
2022-10-24T01:04:01.620Z,96654.94
2022-10-24T01:06:41.035Z,96553.69
2022-10-24T01:09:18.554Z,96585.53
2022-10-24T01:11:52.112Z,96648.91
2022-10-24T01:14:41.945Z,96608.28
2022-10-24T01:17:22.337Z,96593.34
2022-10-24T01:20:07.767Z,96652.66
2022-10-24T01:23:08.299Z,96652.84
2022-10-24T01:25:59.267Z,96654.78
2022-10-24T01:28:29.571Z,96624.22
2022-10-24T01:31:16.726Z,96604.22
2022-10-24T01:33:48.939Z,96539.25
2022-10-24T01:36:18.271Z,96618.81
2022-10-24T01:38:47.008Z,96579.31
2022-10-24T01:41:21.291Z,96563.91
2022-10-24T01:44:09.943Z,96542.75
2022-10-24T01:46:40.206Z,96620.56
2022-10-24T01:49:12.756Z,96568.59
2022-10-24T01:51:39.500Z,96577.03
2022-10-24T01:54:06.128Z,96548.59
2022-10-24T01:56:47.099Z,96543.22
2022-10-24T01:59:25.767Z,96608.00
2022-10-24T02:01:53.033Z,96514.31
2022-10-24T02:04:19.671Z,96473.53
2022-10-24T02:06:46.430Z,96524.69
2022-10-24T02:09:16.221Z,96543.34
2022-10-24T02:11:42.963Z,96570.97
2022-10-24T02:14:16.940Z,96617.56
2022-10-24T02:16:44.204Z,96565.91
2022-10-24T02:19:10.824Z,96478.56
2022-10-24T02:22:11.805Z,96563.66
2022-10-24T02:24:52.675Z,96606.25
2022-10-24T02:27:23.321Z,96642.97
2022-10-24T02:29:55.294Z,96432.03
2022-10-24T02:32:26.058Z,96540.19
2022-10-24T02:34:52.872Z,96496.97
2022-10-24T02:37:19.521Z,96523.13
2022-10-24T02:39:46.915Z,96569.06
2022-10-24T02:42:13.946Z,96448.44
2022-10-24T02:44:41.151Z,96625.00
2022-10-24T02:47:07.809Z,96474.88
2022-10-24T02:49:34.564Z,96443.53
2022-10-24T02:52:01.186Z,96480.91
2022-10-24T02:54:27.813Z,96549.91
2022-10-24T02:56:58.098Z,96622.63
2022-10-24T02:59:24.916Z,96496.63
2022-10-24T03:01:51.545Z,96567.09
2022-10-24T03:04:18.204Z,96606.25
2022-10-24T03:06:44.799Z,96593.72
2022-10-24T03:09:11.456Z,96513.22
2022-10-24T03:11:38.223Z,96587.94
2022-10-24T03:14:05.118Z,96571.38
2022-10-24T03:16:31.844Z,96396.50
2022-10-24T03:18:58.416Z,96561.31
2022-10-24T03:21:24.975Z,96650.31
2022-10-24T03:23:51.625Z,96665.78
2022-10-24T03:26:18.197Z,96648.72
2022-10-24T03:28:44.843Z,96645.00
2022-10-24T03:31:11.533Z,96635.91
2022-10-24T03:33:38.162Z,96571.06
2022-10-24T03:36:05.553Z,96640.94
2022-10-24T03:38:32.134Z,96637.03
2022-10-24T03:40:58.830Z,96579.19
2022-10-24T03:43:25.537Z,96658.47
2022-10-24T03:45:52.264Z,96683.84
2022-10-24T03:48:18.868Z,96653.13
2022-10-24T03:50:45.453Z,96503.31
2022-10-24T03:53:12.088Z,96462.41
2022-10-24T03:55:38.914Z,96660.41
2022-10-24T03:58:05.872Z,96577.09
2022-10-24T04:00:35.020Z,96705.13
2022-10-24T04:03:01.706Z,96567.00
2022-10-24T04:05:28.285Z,96441.47
2022-10-24T04:07:55.057Z,96622.09
2022-10-24T04:10:21.710Z,96668.88
2022-10-24T04:12:48.265Z,96654.25
2022-10-24T04:15:14.855Z,96635.41
2022-10-24T04:17:41.726Z,96629.53
2022-10-24T04:20:08.777Z,96615.38
2022-10-24T04:22:35.458Z,96605.00
2022-10-24T04:25:02.061Z,96600.78
2022-10-24T04:27:28.784Z,96596.88
2022-10-24T04:29:55.457Z,96610.84
2022-10-24T04:32:22.055Z,96636.53
2022-10-24T04:34:48.764Z,96677.47
2022-10-24T04:37:15.368Z,96510.00
2022-10-24T04:39:42.089Z,96576.09
2022-10-24T04:42:08.655Z,96414.53
2022-10-24T04:44:35.208Z,96550.59
2022-10-24T04:47:01.772Z,96604.50
2022-10-24T04:49:28.345Z,96634.69
2022-10-24T04:51:54.925Z,96581.25
2022-10-24T04:54:21.548Z,96631.63
2022-10-24T04:56:48.109Z,96623.84
2022-10-24T04:59:14.823Z,96696.78
2022-10-24T05:01:41.659Z,96632.78
2022-10-24T05:04:08.345Z,96658.28
2022-10-24T05:06:35.006Z,96649.81
2022-10-24T05:09:01.586Z,96682.94
2022-10-24T05:11:28.169Z,96620.06
2022-10-24T05:13:54.910Z,96573.59
2022-10-24T05:16:21.553Z,96485.13
2022-10-24T05:18:48.186Z,96546.34
2022-10-24T05:21:14.842Z,96530.28
2022-10-24T05:23:41.376Z,96736.31
2022-10-24T05:26:07.950Z,96698.13
2022-10-24T05:28:34.872Z,96695.50
2022-10-24T05:31:01.575Z,96694.69
2022-10-24T05:33:28.151Z,96431.06
2022-10-24T05:35:54.726Z,96456.19
2022-10-24T05:38:21.313Z,96636.03
2022-10-24T05:40:49.297Z,96717.78
2022-10-24T05:43:16.362Z,96707.88
2022-10-24T05:45:43.145Z,96650.16
2022-10-24T05:48:09.798Z,96675.16
2022-10-24T05:50:36.388Z,96653.22
2022-10-24T05:53:03.263Z,96690.75
2022-10-24T05:55:31.938Z,96721.47
2022-10-24T05:58:37.899Z,96757.56
2022-10-24T06:01:05.498Z,96773.81
2022-10-24T06:03:34.283Z,96611.13
2022-10-24T06:06:08.147Z,96720.66
2022-10-24T06:08:35.932Z,96692.22
2022-10-24T06:11:02.693Z,96560.13
2022-10-24T06:13:33.813Z,96686.69
2022-10-24T06:16:03.223Z,96775.00
2022-10-24T06:18:29.807Z,96709.78
2022-10-24T06:20:59.819Z,96728.66
2022-10-24T06:23:26.431Z,96669.59
2022-10-24T06:25:53.054Z,96725.38
2022-10-24T06:28:19.753Z,96573.81
2022-10-24T06:30:48.338Z,96615.84
2022-10-24T06:33:14.994Z,96772.38
2022-10-24T06:35:41.615Z,96746.69
2022-10-24T06:38:08.204Z,96538.19
2022-10-24T06:40:34.909Z,96703.81
2022-10-24T06:43:01.556Z,96726.56
2022-10-24T06:45:28.206Z,96724.34
2022-10-24T06:47:55.148Z,96665.19
2022-10-24T06:50:21.956Z,96729.41
2022-10-24T06:52:48.591Z,96716.22
2022-10-24T06:55:15.443Z,96492.38
2022-10-24T06:57:42.308Z,96725.28
2022-10-24T07:00:10.041Z,96574.47
2022-10-24T07:02:36.818Z,96707.75
2022-10-24T07:05:03.544Z,96694.22
2022-10-24T07:07:30.152Z,96522.56
2022-10-24T07:09:57.452Z,96704.25
2022-10-24T07:12:24.539Z,96682.66
2022-10-24T07:14:51.112Z,96727.16
2022-10-24T07:17:19.668Z,96608.53
2022-10-24T07:19:46.600Z,96724.53
2022-10-24T07:22:13.188Z,96654.97
2022-10-24T07:24:39.779Z,96579.25
2022-10-24T07:27:06.356Z,96547.66
2022-10-24T07:29:32.978Z,96560.72
2022-10-24T07:31:59.663Z,96524.22
2022-10-24T07:34:26.276Z,96695.31
2022-10-24T07:36:53.386Z,96390.34
2022-10-24T07:39:21.794Z,96678.38
2022-10-24T07:41:48.573Z,96690.88
2022-10-24T07:44:15.178Z,96542.16
2022-10-24T07:46:42.519Z,96724.13
2022-10-24T07:49:09.408Z,96610.91
2022-10-24T07:51:35.954Z,96534.59
2022-10-24T07:54:02.614Z,96637.81
2022-10-24T07:56:29.282Z,96669.69
2022-10-24T07:58:56.668Z,96622.09
2022-10-24T08:01:24.470Z,96661.06
2022-10-24T08:03:51.127Z,96639.25
2022-10-24T08:06:19.512Z,96394.47
2022-10-24T08:08:46.197Z,96655.69
2022-10-24T08:11:23.996Z,96625.28
2022-10-24T08:13:51.396Z,96628.50
2022-10-24T08:16:18.816Z,96586.53
2022-10-24T08:18:45.534Z,96639.47
2022-10-24T08:21:14.097Z,96589.03
2022-10-24T08:23:42.611Z,96633.34
2022-10-24T08:26:09.957Z,96660.31
2022-10-24T08:28:36.813Z,96593.13
2022-10-24T08:31:05.656Z,96560.53
2022-10-24T08:33:32.310Z,96638.19
2022-10-24T08:36:00.808Z,96603.50
2022-10-24T08:38:28.203Z,96577.88
2022-10-24T08:40:55.250Z,96605.97
2022-10-24T08:43:21.945Z,96546.19
2022-10-24T08:46:04.655Z,96617.69
2022-10-24T08:48:42.630Z,96565.97
2022-10-24T08:51:51.152Z,96612.78
2022-10-24T08:54:20.558Z,96384.53
2022-10-24T08:56:47.178Z,96589.56
2022-10-24T08:59:13.806Z,96619.59
2022-10-24T09:01:43.228Z,96637.94
2022-10-24T09:04:10.884Z,96532.06
2022-10-24T09:06:37.548Z,96614.63
2022-10-24T09:09:13.141Z,96627.41
2022-10-24T09:11:56.022Z,96630.44
2022-10-24T09:14:33.451Z,96514.59
2022-10-24T09:17:10.507Z,96497.00
2022-10-24T09:19:37.383Z,96595.69
2022-10-24T09:22:03.977Z,96532.00
2022-10-24T09:24:42.699Z,96595.97
2022-10-24T09:27:24.661Z,96538.09
2022-10-24T09:29:52.045Z,96563.44
2022-10-24T09:32:23.232Z,96514.78
2022-10-24T09:34:50.081Z,96578.47
2022-10-24T09:41:17.512Z,96618.06
2022-10-24T09:43:43.999Z,96659.09
2022-10-24T09:46:12.594Z,96605.63
2022-10-24T09:48:42.127Z,96665.94
2022-10-24T09:51:08.879Z,96414.94
2022-10-24T09:53:37.304Z,96611.63
2022-10-24T09:56:12.021Z,96603.13
2022-10-24T09:58:38.826Z,96669.88
2022-10-24T10:01:07.092Z,96662.34
2022-10-24T10:03:34.679Z,96658.44
2022-10-24T10:06:04.869Z,96622.56
2022-10-24T10:08:32.916Z,96579.59
2022-10-24T10:11:08.100Z,96613.97
2022-10-24T10:13:38.684Z,96613.69
2022-10-24T10:16:07.548Z,96547.59
2022-10-24T10:18:40.112Z,96692.19
2022-10-24T10:21:12.099Z,96685.53
2022-10-24T10:24:02.140Z,96682.91
2022-10-24T10:26:45.195Z,96628.38
2022-10-24T10:29:18.186Z,96686.91
2022-10-24T10:31:46.841Z,96610.16
2022-10-24T10:34:21.412Z,96691.56
2022-10-24T10:36:52.481Z,96632.06
2022-10-24T10:39:45.182Z,96684.16
2022-10-24T10:42:20.275Z,96606.78
2022-10-24T10:44:52.845Z,96686.81
2022-10-24T10:47:47.161Z,96690.53
2022-10-24T10:54:10.452Z,96689.75
2022-10-24T10:57:02.562Z,96671.78
2022-10-24T11:00:12.484Z,96692.75
2022-10-24T11:02:56.061Z,96584.34
2022-10-24T11:05:44.812Z,96688.38
2022-10-24T11:08:26.490Z,96686.19
2022-10-24T11:11:02.066Z,96698.94
2022-10-24T11:13:37.890Z,96635.00
2022-10-24T11:16:07.626Z,96669.19
2022-10-24T11:18:35.617Z,96627.22
2022-10-24T11:21:05.771Z,96613.28
2022-10-24T11:23:41.656Z,96702.16
2022-10-24T11:26:09.712Z,96713.34
2022-10-24T11:28:48.081Z,96643.38
2022-10-24T11:31:19.112Z,96524.72
2022-10-24T11:33:47.354Z,96669.31
2022-10-24T11:36:20.914Z,96697.00
2022-10-24T11:38:58.708Z,96516.50
2022-10-24T11:41:56.218Z,96620.66
2022-10-24T11:44:44.156Z,96697.50
2022-10-24T11:47:39.767Z,96584.19
2022-10-24T11:50:29.371Z,96698.69
2022-10-24T11:53:03.232Z,96526.63
2022-10-24T11:55:39.038Z,96437.59
2022-10-24T11:58:09.136Z,96559.28
2022-10-24T12:01:17.875Z,96682.56
2022-10-24T12:04:35.613Z,96680.34
2022-10-24T12:07:27.385Z,96683.31
2022-10-24T12:10:18.099Z,96666.72
2022-10-24T12:13:13.027Z,96669.94
2022-10-24T12:16:08.611Z,96611.38
2022-10-24T12:18:39.511Z,96662.00
2022-10-24T12:21:08.231Z,96480.25
2022-10-24T12:23:35.242Z,96518.81
2022-10-24T12:26:06.929Z,96472.88
2022-10-24T12:28:33.845Z,96474.09
2022-10-24T12:31:22.505Z,96515.59
2022-10-24T12:34:22.992Z,96642.16
2022-10-24T12:37:12.032Z,96623.41
2022-10-24T12:39:47.573Z,96597.81
2022-10-24T12:42:37.424Z,96590.56
2022-10-24T12:45:03.926Z,96624.38
2022-10-24T12:47:43.338Z,96626.25
2022-10-24T12:50:22.111Z,96624.88
2022-10-24T12:52:48.917Z,96621.22
2022-10-24T12:55:39.434Z,96611.16
2022-10-24T12:58:28.205Z,96614.94
2022-10-24T13:00:58.512Z,96436.31
2022-10-24T13:03:37.171Z,96601.19
2022-10-24T13:06:09.906Z,96570.59
2022-10-24T13:09:05.672Z,96600.94
2022-10-24T13:12:13.615Z,96502.84
2022-10-24T13:14:47.055Z,96607.00
2022-10-24T13:17:30.584Z,96451.41
2022-10-24T13:20:15.794Z,96603.13
2022-10-24T13:22:42.457Z,96600.09
2022-10-24T13:25:33.603Z,96603.88
2022-10-24T13:28:19.796Z,96604.09
2022-10-24T13:30:49.556Z,96446.47
2022-10-24T13:33:28.885Z,96478.22
2022-10-24T13:36:16.347Z,96604.09
2022-10-24T13:39:02.123Z,96613.56
2022-10-24T13:41:32.090Z,96521.53
2022-10-24T13:44:28.575Z,96427.25
2022-10-24T13:47:33.682Z,96397.75
2022-10-24T13:50:17.143Z,96401.19
2022-10-24T13:52:58.089Z,96487.13
2022-10-24T13:55:25.729Z,96593.13
2022-10-24T13:58:05.422Z,96547.44
2022-10-24T14:00:33.973Z,96435.75
2022-10-24T14:03:02.352Z,96604.00
2022-10-24T14:05:32.317Z,96465.28
2022-10-24T14:07:59.249Z,96598.97
2022-10-24T14:10:25.962Z,96421.28
2022-10-24T14:12:57.126Z,96508.06
2022-10-24T14:15:28.677Z,96528.47
2022-10-24T14:17:58.384Z,96588.13
2022-10-24T14:20:28.821Z,96610.31
2022-10-24T14:22:55.421Z,96457.94
2022-10-24T14:25:36.127Z,96589.31
2022-10-24T14:28:10.156Z,96435.78
2022-10-24T14:30:36.800Z,96537.38
2022-10-24T14:33:15.646Z,96545.69
2022-10-24T14:35:42.277Z,96555.16
2022-10-24T14:38:12.224Z,96410.09
2022-10-24T14:40:38.940Z,96541.91
2022-10-24T14:43:05.580Z,96341.84
2022-10-24T14:45:32.238Z,96473.84
2022-10-24T14:47:59.160Z,96397.84
2022-10-24T14:50:42.812Z,96468.19
2022-10-24T14:53:25.976Z,96484.38
2022-10-24T14:55:57.493Z,96508.66
2022-10-24T14:58:25.801Z,96394.81
2022-10-24T15:00:54.027Z,96396.44
2022-10-24T15:03:20.948Z,96475.22
2022-10-24T15:05:59.042Z,96492.03
2022-10-24T15:08:28.750Z,96428.66
2022-10-24T15:11:16.219Z,96431.25
2022-10-24T15:13:59.955Z,96418.06
2022-10-24T15:16:38.644Z,96409.09
2022-10-24T15:19:06.167Z,96272.16
2022-10-24T15:21:37.504Z,96441.09
2022-10-24T15:24:04.331Z,96342.81
2022-10-24T15:26:40.595Z,96316.94
2022-10-24T15:29:14.123Z,96477.13
2022-10-24T15:31:48.270Z,96487.38
2022-10-24T15:34:19.503Z,96494.94
2022-10-24T15:36:46.925Z,96374.97
2022-10-24T15:39:15.442Z,96434.44
2022-10-24T15:41:42.327Z,96280.44
2022-10-24T15:44:17.887Z,96552.88
2022-10-24T15:46:45.551Z,96471.00
2022-10-24T15:49:12.504Z,96411.88
2022-10-24T15:51:39.963Z,96358.38
2022-10-24T15:54:06.574Z,96530.78
2022-10-24T15:56:33.235Z,96491.91
2022-10-24T15:59:00.041Z,96518.72
2022-10-24T16:01:38.465Z,96566.06
2022-10-24T16:04:08.395Z,96356.00
2022-10-24T16:06:35.029Z,96556.00
2022-10-24T16:09:01.670Z,96358.69
2022-10-24T16:11:29.133Z,96531.59
2022-10-24T16:13:56.195Z,96452.00
2022-10-24T16:16:22.866Z,96495.00
2022-10-24T16:18:49.870Z,96521.66
2022-10-24T16:21:18.266Z,96452.09
2022-10-24T16:23:45.285Z,96594.16
2022-10-24T16:26:12.047Z,96455.34
2022-10-24T16:28:38.666Z,96494.75
2022-10-24T16:31:05.437Z,96419.88
2022-10-24T16:33:32.245Z,96340.69
2022-10-24T16:36:00.173Z,96523.00
2022-10-24T16:38:26.889Z,96485.72
2022-10-24T16:40:54.158Z,96507.81
2022-10-24T16:43:20.842Z,96465.84
2022-10-24T16:45:56.723Z,96415.44
2022-10-24T16:48:23.327Z,96408.41
2022-10-24T16:50:49.965Z,96401.69
2022-10-24T16:53:18.492Z,96400.22
2022-10-24T16:55:49.128Z,96349.34
2022-10-24T16:58:15.884Z,96491.75
2022-10-24T17:00:42.599Z,96452.13
2022-10-24T17:03:09.416Z,96573.59
2022-10-24T17:05:36.073Z,96460.13
2022-10-24T17:08:02.747Z,96456.09
2022-10-24T17:10:29.328Z,96392.38
2022-10-24T17:12:56.451Z,96608.22
2022-10-24T17:15:23.190Z,96383.34
2022-10-24T17:17:49.974Z,96487.97
2022-10-24T17:20:17.450Z,96587.78
2022-10-24T17:22:45.021Z,96408.81
2022-10-24T17:25:23.023Z,96519.75
2022-10-24T17:27:49.858Z,96420.31
2022-10-24T17:30:27.301Z,96443.56
2022-10-24T17:32:54.095Z,96359.81
2022-10-24T17:35:21.986Z,96432.50
2022-10-24T17:38:00.474Z,96580.84
2022-10-24T17:40:29.444Z,96279.09
2022-10-24T17:42:56.438Z,96436.22
2022-10-24T17:45:24.376Z,96456.72
2022-10-24T17:47:51.104Z,96395.31
2022-10-24T17:50:17.974Z,96446.00
2022-10-24T17:52:50.247Z,96359.19
2022-10-24T17:55:46.058Z,96466.03
2022-10-24T17:58:13.026Z,96510.50
2022-10-24T18:00:39.735Z,96439.34
2022-10-24T18:03:08.674Z,96456.13
2022-10-24T18:05:38.309Z,96322.00
2022-10-24T18:08:06.601Z,96411.09
2022-10-24T18:10:33.276Z,96429.28
2022-10-24T18:13:00.345Z,96260.84
2022-10-24T18:15:27.404Z,96308.16
2022-10-24T18:17:54.207Z,96255.53
2022-10-24T18:20:20.930Z,96367.19
2022-10-24T18:22:47.970Z,96347.56
2022-10-24T18:25:20.179Z,96207.88
2022-10-24T18:27:49.526Z,96291.38
2022-10-24T18:30:16.315Z,96446.47
2022-10-24T18:32:43.264Z,96441.28
2022-10-24T18:35:10.096Z,96308.47
2022-10-24T18:37:37.047Z,96605.66
2022-10-24T18:40:05.168Z,96606.47
2022-10-24T18:42:57.837Z,96387.50
2022-10-24T18:45:25.794Z,96329.88
2022-10-24T18:47:53.024Z,96325.06
2022-10-24T18:50:21.738Z,96268.22
2022-10-24T18:53:03.805Z,96515.78
2022-10-24T18:55:31.135Z,96384.38
2022-10-24T18:57:58.082Z,96329.13
2022-10-24T19:00:26.364Z,96405.59
2022-10-24T19:03:16.111Z,96310.91
2022-10-24T19:05:51.903Z,96344.78
2022-10-24T19:08:22.829Z,96428.03
2022-10-24T19:10:51.804Z,96190.91
2022-10-24T19:13:18.688Z,96492.44
2022-10-24T19:15:57.247Z,96316.91
2022-10-24T19:18:23.964Z,96078.53
2022-10-24T19:20:50.708Z,96384.56
2022-10-24T19:23:18.421Z,96518.81
2022-10-24T19:25:45.279Z,96278.91
2022-10-24T19:28:13.287Z,96388.97
2022-10-24T19:30:42.386Z,96324.06
2022-10-24T19:33:09.515Z,96279.91
2022-10-24T19:35:40.442Z,96331.56
2022-10-24T19:38:07.173Z,96326.47
2022-10-24T19:40:33.831Z,96324.06
2022-10-24T19:43:00.535Z,96174.19
2022-10-24T19:45:27.258Z,96229.78
2022-10-24T19:47:56.624Z,96374.59
2022-10-24T19:50:23.347Z,96255.16
2022-10-24T19:52:50.076Z,96405.28
2022-10-24T19:55:16.843Z,96309.97
2022-10-24T19:57:58.847Z,96419.81
2022-10-24T20:00:26.268Z,96614.44
2022-10-24T20:02:53.023Z,96214.13
2022-10-24T20:05:19.767Z,96206.31
2022-10-24T20:07:46.500Z,96331.38
2022-10-24T20:10:13.259Z,96207.34
2022-10-24T20:12:39.965Z,96389.59
2022-10-24T20:15:07.328Z,96264.59
2022-10-24T20:17:35.587Z,96353.22
2022-10-24T20:20:03.487Z,96326.47
2022-10-24T20:22:30.227Z,96206.44
2022-10-24T20:24:56.822Z,96417.78
2022-10-24T20:27:24.762Z,96429.44
2022-10-24T20:29:52.954Z,96488.59
2022-10-24T20:32:20.279Z,96542.13
2022-10-24T20:34:46.950Z,96494.41
2022-10-24T20:37:13.582Z,96601.13
2022-10-24T20:39:40.250Z,96505.34
2022-10-24T20:42:06.893Z,96574.00
2022-10-24T20:44:33.722Z,96525.19
2022-10-24T20:47:00.459Z,96424.94
2022-10-24T20:49:27.076Z,96500.22
2022-10-24T20:51:53.654Z,96438.75
2022-10-24T20:54:20.229Z,96230.38
2022-10-24T20:56:46.926Z,96478.47
2022-10-24T20:59:14.953Z,96481.00
2022-10-24T21:01:41.679Z,96579.53
2022-10-24T21:04:08.422Z,96514.16
2022-10-24T21:06:35.015Z,96494.69
2022-10-24T21:11:31.519Z,96511.47
2022-10-24T21:14:02.585Z,96534.13
2022-10-24T21:16:29.647Z,96276.78
2022-10-24T21:18:57.071Z,96524.63
2022-10-24T21:21:23.966Z,96568.31
2022-10-24T21:23:51.975Z,96585.69
2022-10-24T21:26:19.186Z,96505.75
2022-10-24T21:28:45.761Z,96493.91
2022-10-24T21:31:14.189Z,96571.16
2022-10-24T21:33:43.661Z,96442.53
2022-10-24T21:36:21.107Z,96582.69
2022-10-24T21:38:49.037Z,96624.78
2022-10-24T21:41:15.634Z,96581.53
2022-10-24T21:43:42.371Z,96629.91
2022-10-24T21:46:10.831Z,96475.00
2022-10-24T21:48:38.147Z,96607.06
2022-10-24T21:51:07.002Z,96582.06
2022-10-24T21:53:38.090Z,96568.59
2022-10-24T21:56:05.993Z,96476.75
2022-10-24T21:58:32.596Z,96553.81
2022-10-24T22:00:59.269Z,96496.69
2022-10-24T22:03:25.870Z,96563.72
2022-10-24T22:05:55.946Z,96638.88
2022-10-24T22:08:23.324Z,96527.81
2022-10-24T22:11:00.899Z,96604.06
2022-10-24T22:13:27.676Z,96551.34
2022-10-24T22:15:54.803Z,96551.38
2022-10-24T22:18:22.413Z,96457.72
2022-10-24T22:20:49.219Z,96427.22
2022-10-24T22:23:15.888Z,96510.56
2022-10-24T22:25:42.505Z,96542.72
2022-10-24T22:28:09.091Z,96593.09
2022-10-24T22:30:35.903Z,96556.09
2022-10-24T22:33:02.744Z,96532.56
2022-10-24T22:35:29.789Z,96545.19
2022-10-24T22:37:56.641Z,96516.22
2022-10-24T22:40:27.878Z,96525.22
2022-10-24T22:42:54.675Z,96507.72
2022-10-24T22:45:21.890Z,96509.16
2022-10-24T22:48:07.090Z,96608.03
2022-10-24T22:50:50.342Z,96607.88
2022-10-24T22:53:24.933Z,96421.50
2022-10-24T22:55:54.515Z,96600.34
2022-10-24T22:58:21.632Z,96499.75
2022-10-24T23:00:50.998Z,96612.94
2022-10-24T23:03:37.365Z,96603.88
2022-10-24T23:06:14.959Z,96522.19
2022-10-24T23:08:43.871Z,96445.53
2022-10-24T23:11:11.676Z,96498.00
2022-10-24T23:13:39.264Z,96584.34
2022-10-24T23:16:10.652Z,96631.16
2022-10-24T23:18:37.376Z,96510.03
2022-10-24T23:21:20.129Z,96386.06
2022-10-24T23:23:47.032Z,96534.91
2022-10-24T23:26:24.187Z,96562.38
2022-10-24T23:28:58.624Z,96514.63
2022-10-24T23:31:25.539Z,96587.88
2022-10-24T23:33:52.392Z,96593.41
2022-10-24T23:36:23.021Z,96588.22
2022-10-24T23:38:52.181Z,96504.91
2022-10-24T23:41:19.031Z,96635.50
2022-10-24T23:43:45.957Z,96503.44
2022-10-24T23:46:25.830Z,96618.09
2022-10-24T23:49:08.618Z,96640.69
2022-10-24T23:51:41.284Z,96521.00
2022-10-24T23:54:11.898Z,96537.38
2022-10-24T23:56:38.896Z,96512.06
2022-10-24T23:59:05.655Z,96547.78
